Time;durP1;ratioP1;P1;durP2;ratioP2;P2;SDS_P1;SDS_P2;PMS_P1;PMS_P2;Temp;Humidity;BMP_temperature;BMP_pressure;BME280_temperature;BME280_humidity;BME280_pressure;Samples;Min_cycle;Max_cycle;Signal;HPM_P1;HPM_P2
2022/05/15 00:01:47;;;;;;;21.58;8.40;;;8.20;99.90;;;;;;5043478;28;20064;-81
2022/05/15 00:04:12;;;;;;;21.73;7.82;;;8.20;99.90;;;;;;5043305;28;20021;-81
2022/05/15 00:06:38;;;;;;;24.13;8.07;;;8.30;99.90;;;;;;5057212;28;20033;-81
2022/05/15 00:09:04;;;;;;;27.67;8.20;;;8.30;99.90;;;;;;5044351;28;20017;-81
2022/05/15 00:11:30;;;;;;;18.52;7.72;;;8.20;99.90;;;;;;5045876;28;20030;-81
2022/05/15 00:14:02;;;;;;;24.30;7.68;;;8.10;99.90;;;;;;5052049;28;20069;-81
2022/05/15 00:16:29;;;;;;;13.68;7.15;;;7.90;99.90;;;;;;5062485;28;20021;-81
2022/05/15 00:18:55;;;;;;;13.73;6.15;;;7.70;99.90;;;;;;5041317;28;20056;-81
2022/05/15 00:21:20;;;;;;;17.38;6.93;;;7.70;99.90;;;;;;5062251;28;20046;-81
2022/05/15 00:23:46;;;;;;;13.68;6.65;;;7.60;99.90;;;;;;5061742;28;20025;-81
2022/05/15 00:26:14;;;;;;;19.38;7.07;;;7.70;99.90;;;;;;5060842;28;20045;-81
2022/05/15 00:28:40;;;;;;;11.63;5.88;;;7.60;99.90;;;;;;5061009;28;20025;-81
2022/05/15 00:31:05;;;;;;;11.43;5.10;;;7.60;99.90;;;;;;5062311;28;20104;-81
2022/05/15 00:33:32;;;;;;;14.63;4.60;;;7.70;99.90;;;;;;5058674;28;20018;-81
2022/05/15 00:35:58;;;;;;;12.13;4.20;;;7.70;99.90;;;;;;5055057;28;20021;-81
2022/05/15 00:38:24;;;;;;;7.70;4.40;;;7.60;99.90;;;;;;5061556;28;20096;-81
2022/05/15 00:40:50;;;;;;;8.38;4.63;;;7.60;99.90;;;;;;5064920;28;20028;-81
2022/05/15 00:43:44;;;;;;;7.05;4.32;;;7.70;99.90;;;;;;5052491;28;20037;-81
2022/05/15 00:46:23;;;;;;;12.80;4.53;;;7.60;99.90;;;;;;5027894;28;20033;-81
2022/05/15 00:48:51;;;;;;;11.52;5.22;;;7.60;99.90;;;;;;5045277;28;20025;-80
2022/05/15 00:51:57;;;;;;;8.50;4.60;;;7.40;99.90;;;;;;5043518;28;20041;-81
2022/05/15 00:54:41;;;;;;;10.05;4.65;;;7.50;99.90;;;;;;5040947;28;20014;-81
2022/05/15 00:57:17;;;;;;;14.07;5.10;;;7.40;99.90;;;;;;5039107;28;20032;-81
2022/05/15 00:59:50;;;;;;;13.65;5.50;;;7.50;99.90;;;;;;5022117;28;20115;-81
2022/05/15 01:02:17;;;;;;;17.02;4.85;;;7.40;99.90;;;;;;5039318;28;20029;-81
2022/05/15 01:04:45;;;;;;;12.70;6.45;;;7.50;99.90;;;;;;5040504;28;20021;-81
2022/05/15 01:07:11;;;;;;;18.27;5.70;;;7.40;99.90;;;;;;5039702;28;20071;-81
2022/05/15 01:09:36;;;;;;;17.45;6.15;;;7.40;99.90;;;;;;5047842;28;20033;-81
2022/05/15 01:12:03;;;;;;;12.13;5.88;;;7.40;99.90;;;;;;5061023;28;20120;-82
2022/05/15 01:14:29;;;;;;;24.90;6.40;;;7.40;99.90;;;;;;5060419;28;20020;-81
2022/05/15 01:16:54;;;;;;;16.92;6.65;;;7.50;99.90;;;;;;5059738;28;20017;-81
2022/05/15 01:19:35;;;;;;;18.48;6.88;;;7.50;99.90;;;;;;5059017;28;20083;-81
2022/05/15 01:22:03;;;;;;;17.45;5.78;;;7.40;99.90;;;;;;5061643;28;20503;-81
2022/05/15 01:24:30;;;;;;;18.08;6.32;;;7.30;99.90;;;;;;5060600;28;20433;-82
2022/05/15 01:26:57;;;;;;;15.07;5.80;;;7.40;99.90;;;;;;5059345;28;20021;-82
2022/05/15 01:29:30;;;;;;;10.75;4.75;;;7.40;99.90;;;;;;5051466;28;20029;-81
2022/05/15 01:31:57;;;;;;;11.02;4.32;;;7.30;99.90;;;;;;5039410;28;20119;-82
2022/05/15 01:34:23;;;;;;;14.45;4.18;;;7.30;99.90;;;;;;5020772;28;20029;-81
2022/05/15 01:36:49;;;;;;;7.85;3.70;;;7.20;99.90;;;;;;5037719;28;20503;-81
2022/05/15 01:39:14;;;;;;;14.60;4.57;;;7.10;99.90;;;;;;5038897;28;20021;-82
2022/05/15 01:41:40;;;;;;;7.72;4.55;;;7.00;99.90;;;;;;5025975;28;20028;-82
2022/05/15 01:44:06;;;;;;;12.00;5.25;;;7.10;99.90;;;;;;5059055;28;20100;-81
2022/05/15 01:46:31;;;;;;;12.52;5.22;;;7.30;99.90;;;;;;5059705;28;20025;-81
2022/05/15 01:48:59;;;;;;;11.57;5.55;;;7.30;99.90;;;;;;5060226;28;20029;-81
2022/05/15 01:51:25;;;;;;;13.27;5.22;;;7.30;99.90;;;;;;5048415;28;20088;-81
2022/05/15 01:53:51;;;;;;;12.48;5.50;;;7.30;99.90;;;;;;5039074;28;20022;-81
2022/05/15 01:56:16;;;;;;;12.35;5.60;;;7.40;99.90;;;;;;5039090;28;20057;-81
2022/05/15 01:58:42;;;;;;;12.85;5.57;;;7.30;99.90;;;;;;5038505;28;20028;-81
2022/05/15 02:01:08;;;;;;;12.60;5.53;;;7.30;99.90;;;;;;5038774;28;20036;-81
2022/05/15 02:03:34;;;;;;;14.60;6.40;;;7.10;99.90;;;;;;5020953;28;20117;-81
2022/05/15 02:06:00;;;;;;;11.77;5.22;;;7.20;99.90;;;;;;5054571;28;20068;-81
2022/05/15 02:08:27;;;;;;;12.02;5.55;;;7.00;99.90;;;;;;5058580;28;20053;-81
2022/05/15 02:10:53;;;;;;;13.38;5.63;;;7.00;99.90;;;;;;5060886;28;20032;-81
2022/05/15 02:13:19;;;;;;;10.68;4.70;;;6.90;99.90;;;;;;5061054;28;20687;-82
2022/05/15 02:15:44;;;;;;;14.68;5.38;;;6.80;99.90;;;;;;5059704;28;20037;-82
2022/05/15 02:18:10;;;;;;;10.45;5.18;;;6.70;99.90;;;;;;5058375;28;20048;-82
2022/05/15 02:20:36;;;;;;;10.77;5.22;;;6.80;99.90;;;;;;5056697;28;20558;-81
2022/05/15 02:23:01;;;;;;;10.18;5.28;;;6.90;99.90;;;;;;5047483;28;20017;-81
2022/05/15 02:25:33;;;;;;;13.35;5.47;;;7.00;99.90;;;;;;5051479;28;20037;-81
2022/05/15 02:27:59;;;;;;;8.63;4.75;;;7.00;99.90;;;;;;5042136;28;20026;-82
2022/05/15 02:30:25;;;;;;;9.23;4.32;;;7.00;99.90;;;;;;5041958;28;20066;-81
2022/05/15 02:32:51;;;;;;;8.70;4.40;;;7.10;99.90;;;;;;5040645;28;20022;-81
2022/05/15 02:35:17;;;;;;;10.02;4.53;;;7.00;99.90;;;;;;5048021;28;20499;-82
2022/05/15 02:37:44;;;;;;;13.02;4.28;;;6.90;99.90;;;;;;5058720;28;20029;-81
2022/05/15 02:40:12;;;;;;;14.57;5.13;;;6.90;99.90;;;;;;5061160;28;20076;-81
2022/05/15 02:42:38;;;;;;;15.35;5.10;;;6.80;99.90;;;;;;5061741;28;20563;-81
2022/05/15 02:45:05;;;;;;;13.90;5.28;;;6.90;99.90;;;;;;5063964;28;20079;-81
2022/05/15 02:47:31;;;;;;;12.23;4.85;;;6.90;99.90;;;;;;5062610;28;20025;-81
2022/05/15 02:52:40;;;;;;;17.05;5.63;;;6.80;99.90;;;;;;5060580;28;20044;-81
2022/05/15 02:55:06;;;;;;;8.32;5.20;;;6.90;99.90;;;;;;5059766;28;20025;-80
2022/05/15 02:57:32;;;;;;;10.30;5.53;;;6.90;99.90;;;;;;5059189;28;20025;-82
2022/05/15 02:59:57;;;;;;;16.75;5.40;;;6.80;99.90;;;;;;5058399;28;20029;-81
2022/05/15 03:02:23;;;;;;;15.80;5.55;;;6.70;99.90;;;;;;5058435;28;20031;-81
2022/05/15 03:04:49;;;;;;;12.13;5.40;;;6.70;99.90;;;;;;5058110;28;20036;-80
2022/05/15 03:07:15;;;;;;;17.50;5.80;;;6.80;99.90;;;;;;5057889;28;20021;-81
2022/05/15 03:09:41;;;;;;;22.52;6.32;;;6.70;99.90;;;;;;5052442;28;20366;-81
2022/05/15 03:12:07;;;;;;;16.27;5.45;;;6.70;99.90;;;;;;5059811;28;20048;-81
2022/05/15 03:14:42;;;;;;;10.93;4.50;;;6.60;99.90;;;;;;5058770;28;20032;-81
2022/05/15 03:17:08;;;;;;;12.60;5.72;;;6.60;99.90;;;;;;5059316;28;20025;-81
2022/05/15 03:19:33;;;;;;;16.58;5.90;;;6.70;99.90;;;;;;5061978;28;20049;-81
2022/05/15 03:21:59;;;;;;;15.57;6.18;;;6.60;99.90;;;;;;5064037;28;20025;-81
2022/05/15 03:24:24;;;;;;;21.63;6.20;;;6.60;99.90;;;;;;5061090;28;20079;-81
2022/05/15 03:26:50;;;;;;;20.77;6.05;;;6.80;99.90;;;;;;5059199;28;20071;-80
2022/05/15 03:29:19;;;;;;;18.08;6.40;;;6.80;99.90;;;;;;5059476;28;20028;-81
2022/05/15 03:31:45;;;;;;;20.50;6.55;;;6.80;99.90;;;;;;5062740;28;20108;-81
2022/05/15 03:34:13;;;;;;;14.98;5.72;;;6.90;99.90;;;;;;5061596;28;20392;-81
2022/05/15 03:36:41;;;;;;;19.92;6.50;;;7.10;99.90;;;;;;5060845;28;20044;-81
2022/05/15 03:39:08;;;;;;;17.95;6.40;;;7.10;99.90;;;;;;5061571;28;20021;-81
2022/05/15 03:41:35;;;;;;;14.45;6.05;;;7.00;99.90;;;;;;5052433;28;20029;-81
2022/05/15 03:44:01;;;;;;;18.77;6.18;;;7.00;99.90;;;;;;5063815;28;20025;-81
2022/05/15 03:46:27;;;;;;;12.75;5.68;;;7.10;99.90;;;;;;5050165;28;20104;-81
2022/05/15 03:48:52;;;;;;;14.43;5.07;;;7.00;99.90;;;;;;5044166;28;20029;-82
2022/05/15 03:51:18;;;;;;;21.80;5.72;;;7.10;99.90;;;;;;5046280;28;20033;-81
2022/05/15 03:53:44;;;;;;;21.65;5.95;;;7.10;99.90;;;;;;5062215;28;20017;-81
2022/05/15 03:56:10;;;;;;;17.92;5.47;;;7.10;99.90;;;;;;5062069;28;20423;-81
2022/05/15 03:58:37;;;;;;;13.95;5.45;;;7.30;99.90;;;;;;5062117;28;20029;-81
2022/05/15 04:01:04;;;;;;;17.50;5.88;;;7.30;99.90;;;;;;5061611;28;20033;-82
2022/05/15 04:03:30;;;;;;;19.60;5.28;;;7.20;99.90;;;;;;5065348;28;20029;-81
2022/05/15 04:05:56;;;;;;;18.27;5.60;;;7.20;99.90;;;;;;5067551;28;20017;-81
2022/05/15 04:08:22;;;;;;;15.30;5.55;;;7.30;99.90;;;;;;5067671;28;20024;-81
2022/05/15 04:10:47;;;;;;;16.13;6.05;;;7.40;99.90;;;;;;5066349;28;20080;-81
2022/05/15 04:13:13;;;;;;;17.50;5.20;;;7.40;99.90;;;;;;5065801;28;20021;-81
2022/05/15 04:15:39;;;;;;;14.05;5.90;;;7.50;99.90;;;;;;5038938;28;20637;-82
2022/05/15 04:18:11;;;;;;;18.88;6.30;;;7.50;99.90;;;;;;5024169;28;20045;-82
2022/05/15 04:20:37;;;;;;;14.98;6.13;;;7.70;99.90;;;;;;5047311;28;20056;-82
2022/05/15 04:23:04;;;;;;;23.58;6.20;;;7.70;99.90;;;;;;5062462;28;20361;-81
2022/05/15 04:25:29;;;;;;;20.80;5.82;;;7.70;99.90;;;;;;5060344;28;20092;-81
2022/05/15 04:27:55;;;;;;;17.50;5.40;;;7.90;99.90;;;;;;5034279;28;20037;-81
2022/05/15 04:30:24;;;;;;;18.60;6.82;;;7.90;99.90;;;;;;5049664;28;20049;-82
2022/05/15 04:32:51;;;;;;;17.38;5.78;;;8.00;99.90;;;;;;5041009;28;20100;-81
2022/05/15 04:35:18;;;;;;;16.17;6.07;;;8.00;99.90;;;;;;5038868;28;20103;-82
2022/05/15 04:37:44;;;;;;;14.85;6.60;;;8.30;99.90;;;;;;5039750;28;20477;-82
2022/05/15 04:40:11;;;;;;;16.58;6.25;;;9.20;99.90;;;;;;5042127;28;20025;-82
2022/05/15 04:42:38;;;;;;;22.70;6.72;;;9.40;99.90;;;;;;5055728;28;20740;-81
2022/05/15 04:45:06;;;;;;;19.67;6.15;;;8.80;99.90;;;;;;5058608;28;20033;-81
2022/05/15 04:47:32;;;;;;;17.75;6.40;;;8.60;99.90;;;;;;5062448;28;20044;-82
2022/05/15 04:49:58;;;;;;;15.60;6.28;;;8.60;99.90;;;;;;5061749;28;20468;-81
2022/05/15 04:52:24;;;;;;;21.05;6.32;;;8.60;99.90;;;;;;5061073;28;20029;-81
2022/05/15 04:54:50;;;;;;;15.85;5.88;;;8.80;99.90;;;;;;5065708;28;20096;-79
2022/05/15 04:57:18;;;;;;;16.10;5.93;;;8.90;99.90;;;;;;5065671;28;20052;-81
2022/05/15 04:59:44;;;;;;;20.38;7.47;;;9.10;99.90;;;;;;5073216;28;20013;-80
2022/05/15 05:02:09;;;;;;;18.88;6.85;;;10.80;99.90;;;;;;5072993;28;20024;-80
2022/05/15 05:04:41;;;;;;;21.17;6.85;;;12.70;99.90;;;;;;5073040;28;20045;-80
2022/05/15 05:07:07;;;;;;;19.33;7.47;;;14.00;99.90;;;;;;5074917;28;20033;-81
2022/05/15 05:09:32;;;;;;;21.85;7.25;;;14.50;99.90;;;;;;5072870;28;20017;-81
2022/05/15 05:11:58;;;;;;;15.43;6.18;;;15.70;99.90;;;;;;5075914;28;20033;-80
2022/05/15 05:14:23;;;;;;;15.00;6.03;;;16.70;99.90;;;;;;5075203;28;20023;-80
2022/05/15 05:16:49;;;;;;;14.48;6.22;;;16.60;1.00;;;;;;5071778;28;20017;-80
2022/05/15 05:19:14;;;;;;;12.93;5.93;;;17.50;1.00;;;;;;5071314;28;20029;-80
2022/05/15 05:21:40;;;;;;;16.70;5.60;;;18.20;1.00;;;;;;5069984;28;20103;-80
2022/05/15 05:24:06;;;;;;;16.00;5.07;;;19.90;99.90;;;;;;5075824;28;20028;-80
2022/05/15 05:26:32;;;;;;;15.68;4.85;;;20.20;99.90;;;;;;5057541;28;20035;-80
2022/05/15 05:28:58;;;;;;;13.30;4.70;;;20.50;99.90;;;;;;5072096;28;20015;-81
2022/05/15 05:31:23;;;;;;;18.25;5.10;;;21.80;99.90;;;;;;5051016;28;20069;-78
2022/05/15 05:33:49;;;;;;;14.73;5.05;;;21.80;99.90;;;;;;5064008;28;20029;-77
2022/05/15 05:36:15;;;;;;;13.48;4.50;;;23.30;99.90;;;;;;5063150;28;20067;-80
2022/05/15 05:38:40;;;;;;;15.23;4.72;;;23.80;99.90;;;;;;5065540;28;20044;-81
2022/05/15 05:41:06;;;;;;;10.38;4.30;;;23.60;99.90;;;;;;5059522;28;20287;-80
2022/05/15 05:43:32;;;;;;;12.60;5.05;;;24.70;99.90;;;;;;5056008;28;20017;-80
2022/05/15 05:45:58;;;;;;;14.98;4.55;;;24.10;99.90;;;;;;5054936;28;20105;-81
2022/05/15 05:48:24;;;;;;;15.57;4.90;;;24.70;99.90;;;;;;5060034;28;20033;-81
2022/05/15 05:50:49;;;;;;;11.68;4.18;;;25.20;99.90;;;;;;5052283;28;20029;-78
2022/05/15 05:53:15;;;;;;;17.33;4.40;;;26.00;99.90;;;;;;5059197;28;20025;-79
2022/05/15 05:55:40;;;;;;;14.38;4.60;;;24.60;99.90;;;;;;5053778;28;20048;-79
2022/05/15 05:58:06;;;;;;;17.63;5.28;;;22.80;99.90;;;;;;5062854;28;20094;-81
2022/05/15 06:00:37;;;;;;;13.02;4.63;;;23.40;99.90;;;;;;5058411;28;20056;-82
2022/05/15 06:05:48;;;;;;;13.70;5.10;;;22.00;99.90;;;;;;5052488;28;20048;-80
2022/05/15 06:08:13;;;;;;;11.95;4.50;;;21.60;99.90;;;;;;5044405;28;20112;-81
2022/05/15 06:10:40;;;;;;;10.95;4.03;;;24.70;99.90;;;;;;5051804;28;20037;-81
2022/05/15 06:13:06;;;;;;;18.58;5.22;;;24.40;99.90;;;;;;5060103;28;20001;-82
2022/05/15 06:15:32;;;;;;;17.92;4.50;;;25.10;99.90;;;;;;5072465;28;20025;-81
2022/05/15 06:17:59;;;;;;;10.60;4.82;;;24.70;99.90;;;;;;5070992;28;20102;-81
2022/05/15 06:20:25;;;;;;;10.68;4.75;;;24.00;99.90;;;;;;5037779;28;20109;-81
2022/05/15 06:22:51;;;;;;;14.05;4.90;;;23.10;99.90;;;;;;5049763;28;20049;-82
2022/05/15 06:25:17;;;;;;;14.10;5.03;;;24.20;99.90;;;;;;5050702;28;20018;-81
2022/05/15 06:27:42;;;;;;;16.17;5.13;;;27.20;99.90;;;;;;5050713;28;20021;-82
2022/05/15 06:30:09;;;;;;;16.45;4.45;;;25.50;99.90;;;;;;5064500;28;20028;-82
2022/05/15 06:32:35;;;;;;;15.73;4.68;;;25.80;99.90;;;;;;5072730;28;20025;-82
2022/05/15 06:35:00;;;;;;;11.88;4.20;;;25.90;99.90;;;;;;5068289;28;20026;-82
2022/05/15 06:37:26;;;;;;;17.10;5.47;;;24.40;99.90;;;;;;5059556;28;20403;-81
2022/05/15 06:39:51;;;;;;;14.10;5.55;;;25.60;99.90;;;;;;5058375;28;20029;-80
2022/05/15 06:42:17;;;;;;;15.50;4.57;;;24.10;99.90;;;;;;5043271;28;20085;-82
2022/05/15 06:44:43;;;;;;;13.02;4.28;;;27.70;99.90;;;;;;5048977;28;20053;-84
2022/05/15 06:47:09;;;;;;;14.18;4.40;;;28.70;99.90;;;;;;5048001;28;20033;-83
2022/05/15 06:49:34;;;;;;;13.70;3.88;;;27.00;99.90;;;;;;5064267;28;20542;-83
2022/05/15 06:52:00;;;;;;;14.77;3.97;;;29.90;99.90;;;;;;5044887;28;20033;-85
2022/05/15 06:54:26;;;;;;;16.17;4.72;;;29.00;99.90;;;;;;5056452;28;20017;-84
2022/05/15 06:59:36;;;;;;;13.15;4.15;;;26.30;99.90;;;;;;5052568;28;20028;-85
2022/05/15 07:02:02;;;;;;;14.35;3.97;;;28.20;99.90;;;;;;5047110;28;20025;-85
2022/05/15 07:04:27;;;;;;;14.85;3.70;;;28.60;99.90;;;;;;5056760;28;20758;-85
2022/05/15 07:06:53;;;;;;;13.80;3.85;;;27.20;99.90;;;;;;5040269;28;20025;-84
2022/05/15 07:09:18;;;;;;;15.70;4.40;;;27.30;99.90;;;;;;5038469;28;20021;-85
2022/05/15 07:11:44;;;;;;;14.88;3.78;;;25.70;99.90;;;;;;5038249;28;20032;-84
2022/05/15 07:14:10;;;;;;;12.40;3.70;;;25.40;99.90;;;;;;5038102;28;20021;-85
2022/05/15 07:16:36;;;;;;;17.08;4.30;;;26.20;99.90;;;;;;5037978;28;20049;-85
2022/05/15 07:19:03;;;;;;;14.45;3.88;;;26.80;99.90;;;;;;5047155;28;20021;-85
2022/05/15 07:21:28;;;;;;;11.98;4.13;;;30.00;99.90;;;;;;5057759;28;20025;-84
2022/05/15 07:23:54;;;;;;;11.77;3.78;;;31.00;99.90;;;;;;5057816;28;20024;-84
2022/05/15 07:26:19;;;;;;;18.23;4.22;;;30.50;99.90;;;;;;5056342;28;20097;-85
2022/05/15 07:28:50;;;;;;;13.38;3.92;;;30.70;99.90;;;;;;5039913;28;20021;-85
2022/05/15 07:31:18;;;;;;;16.40;4.22;;;31.40;99.90;;;;;;5058101;28;20427;-85
2022/05/15 07:33:45;;;;;;;15.27;3.97;;;29.60;99.90;;;;;;5039823;28;20104;-85
2022/05/15 07:36:10;;;;;;;15.25;3.78;;;27.30;99.90;;;;;;5057162;28;20041;-85
2022/05/15 07:38:36;;;;;;;16.35;4.13;;;32.20;99.90;;;;;;5057493;28;20025;-85
2022/05/15 07:41:02;;;;;;;10.88;3.60;;;33.30;99.90;;;;;;5057236;28;20399;-85
2022/05/15 07:43:28;;;;;;;11.48;3.70;;;33.10;99.90;;;;;;5057322;28;20104;-84
2022/05/15 07:45:53;;;;;;;12.60;3.80;;;32.20;99.90;;;;;;5051373;28;20084;-84
2022/05/15 07:48:19;;;;;;;11.65;4.15;;;33.50;99.90;;;;;;5037406;28;20025;-84
2022/05/15 07:50:45;;;;;;;12.45;3.97;;;32.20;99.90;;;;;;5037098;28;20025;-85
2022/05/15 07:53:11;;;;;;;13.07;3.50;;;30.90;99.90;;;;;;5037148;28;20025;-85
2022/05/15 07:55:37;;;;;;;14.10;3.88;;;32.30;99.90;;;;;;5037131;28;20018;-83
2022/05/15 07:58:03;;;;;;;10.40;3.38;;;31.90;99.90;;;;;;5038932;28;20148;-85
2022/05/15 08:00:29;;;;;;;12.68;3.60;;;33.00;99.90;;;;;;5039907;28;20051;-82
2022/05/15 08:03:07;;;;;;;9.75;3.05;;;35.50;99.90;;;;;;5060446;28;20534;-85
2022/05/15 08:08:18;;;;;;;11.38;3.55;;;32.10;99.90;;;;;;5056636;28;20032;-85
2022/05/15 08:10:45;;;;;;;9.57;2.88;;;33.60;99.90;;;;;;5055902;28;20017;-85
2022/05/15 08:13:13;;;;;;;12.63;3.10;;;30.90;99.90;;;;;;5046626;28;20029;-85
2022/05/15 08:15:40;;;;;;;10.98;2.90;;;32.80;99.90;;;;;;5057068;28;20017;-86
2022/05/15 08:23:40;;;;;;;14.18;3.70;;;29.00;99.90;;;;;;5057659;28;20029;-85
2022/05/15 08:26:08;;;;;;;11.48;2.80;;;28.40;99.90;;;;;;5056676;28;20063;-85
2022/05/15 08:28:36;;;;;;;11.13;3.10;;;30.80;99.90;;;;;;5046234;28;20025;-85
2022/05/15 08:31:03;;;;;;;10.90;3.40;;;31.80;99.90;;;;;;5047086;28;20086;-88
2022/05/15 08:33:30;;;;;;;13.55;3.45;;;32.70;99.90;;;;;;5056520;28;20029;-86
2022/05/15 08:35:56;;;;;;;12.43;3.42;;;30.40;99.90;;;;;;5037182;28;20017;-87
2022/05/15 08:38:23;;;;;;;13.05;3.05;;;31.20;99.90;;;;;;5042164;28;20101;-84
2022/05/15 08:41:15;;;;;;;11.80;3.75;;;32.20;99.90;;;;;;5052025;28;20057;-84
2022/05/15 08:43:51;;;;;;;11.35;2.97;;;32.60;99.90;;;;;;5037135;28;20530;-87
2022/05/15 08:46:31;;;;;;;9.85;3.05;;;31.90;99.90;;;;;;5036130;28;20060;-88
2022/05/15 08:49:31;;;;;;;13.27;3.88;;;30.30;99.90;;;;;;5018518;28;20033;-89
2022/05/15 08:52:11;;;;;;;11.35;2.88;;;30.30;99.90;;;;;;5005169;28;20045;-79
2022/05/15 08:54:56;;;;;;;10.13;2.63;;;31.40;99.90;;;;;;5057736;28;20030;-79
2022/05/15 08:57:38;;;;;;;10.20;3.28;;;31.60;99.90;;;;;;5066092;28;20037;-80
2022/05/15 09:00:10;;;;;;;10.45;3.22;;;31.40;99.90;;;;;;5061352;28;20009;-79
2022/05/15 09:02:38;;;;;;;11.57;3.45;;;29.90;99.90;;;;;;5042481;28;20038;-79
2022/05/15 09:05:04;;;;;;;11.63;3.30;;;31.50;99.90;;;;;;5040832;28;20481;-80
2022/05/15 09:07:58;;;;;;;11.70;3.92;;;33.00;99.90;;;;;;5057684;28;20028;-80
2022/05/15 09:10:27;;;;;;;9.20;2.78;;;33.40;99.90;;;;;;5061410;28;20029;-82
2022/05/15 09:13:21;;;;;;;12.18;3.50;;;33.00;99.90;;;;;;5059905;28;20607;-84
2022/05/15 09:15:59;;;;;;;10.00;3.28;;;32.60;99.90;;;;;;5055222;28;20025;-84
2022/05/15 09:18:25;;;;;;;11.25;3.55;;;32.10;99.90;;;;;;5055493;28;20045;-84
2022/05/15 09:20:54;;;;;;;10.02;2.83;;;30.90;99.90;;;;;;5033672;28;20057;-83
2022/05/15 09:23:24;;;;;;;;;;;31.60;99.90;;;;;;5030831;28;20037;-84
2022/05/15 09:26:06;;;;;;;12.60;3.75;;;29.60;99.90;;;;;;5015530;28;19949;-85
2022/05/15 09:28:49;;;;;;;13.32;3.60;;;31.00;99.90;;;;;;5015440;28;20105;-84
2022/05/15 09:31:26;;;;;;;14.20;3.08;;;32.30;99.90;;;;;;5017551;28;20038;-82
2022/05/15 09:33:58;;;;;;;11.45;3.03;;;31.00;99.90;;;;;;5017720;28;20022;-84
2022/05/15 09:36:34;;;;;;;11.88;3.08;;;30.60;99.90;;;;;;5014351;28;20769;-86
2022/05/15 09:39:35;;;;;;;10.88;2.78;;;31.20;99.90;;;;;;5031799;28;20029;-85
2022/05/15 09:45:18;;;;;;;10.60;3.20;;;34.60;99.90;;;;;;5015065;28;20029;-85
2022/05/15 09:48:01;;;;;;;10.40;3.30;;;33.40;99.90;;;;;;5015290;28;20018;-83
2022/05/15 09:50:48;;;;;;;11.50;3.08;;;32.20;99.90;;;;;;5018397;28;20041;-82
2022/05/15 09:53:38;;;;;;;12.90;3.22;;;33.20;99.90;;;;;;5023269;28;20033;-82
2022/05/15 09:56:22;;;;;;;14.63;3.72;;;32.50;99.90;;;;;;5016788;28;20037;-83
2022/05/15 09:58:50;;;;;;;8.18;2.75;;;29.40;99.90;;;;;;5025474;28;20040;-82
2022/05/15 10:01:36;;;;;;;12.23;3.22;;;31.60;99.90;;;;;;5029583;28;20037;-82
2022/05/15 10:04:04;;;;;;;12.07;3.40;;;30.00;99.90;;;;;;5020042;28;20018;-82
2022/05/15 10:06:37;;;;;;;11.63;4.10;;;30.60;99.90;;;;;;5023591;28;20095;-83
2022/05/15 10:09:13;;;;;;;14.45;3.45;;;32.70;99.90;;;;;;5025266;28;20037;-82
2022/05/15 10:11:45;;;;;;;10.45;3.75;;;31.70;99.90;;;;;;5019488;28;20537;-82
2022/05/15 10:14:27;;;;;;;11.07;3.30;;;33.20;99.90;;;;;;5032084;28;20026;-83
2022/05/15 10:16:56;;;;;;;11.43;3.13;;;33.10;99.90;;;;;;5021520;28;20053;-82
2022/05/15 10:19:42;;;;;;;13.60;3.60;;;32.00;99.90;;;;;;5026839;28;20022;-83
2022/05/15 10:22:13;;;;;;;14.15;3.38;;;32.50;99.90;;;;;;5061983;28;20277;-81
2022/05/15 10:24:44;;;;;;;14.70;3.33;;;30.90;99.90;;;;;;5045464;28;20032;-82
2022/05/15 10:27:30;;;;;;;10.93;3.47;;;32.90;99.90;;;;;;5064419;28;20063;-82
2022/05/15 10:30:11;;;;;;;12.27;3.25;;;30.80;99.90;;;;;;5052782;28;20021;-82
2022/05/15 10:32:42;;;;;;;12.48;3.20;;;32.80;99.90;;;;;;5065094;28;20062;-82
2022/05/15 10:35:13;;;;;;;14.05;3.78;;;33.90;99.90;;;;;;5060903;28;20040;-82
2022/05/15 10:37:59;;;;;;;11.57;3.33;;;33.40;99.90;;;;;;5059123;28;20041;-82
2022/05/15 10:40:47;;;;;;;11.85;2.88;;;32.70;99.90;;;;;;5066211;28;20027;-82
2022/05/15 10:43:44;;;;;;;12.18;3.20;;;33.50;99.90;;;;;;5064990;28;20047;-82
2022/05/15 10:46:50;;;;;;;11.30;3.33;;;33.40;99.90;;;;;;5066765;28;20504;-82
2022/05/15 10:49:31;;;;;;;11.77;3.22;;;29.60;99.90;;;;;;5074943;28;20087;-83
2022/05/15 10:52:15;;;;;;;11.15;2.90;;;29.50;99.90;;;;;;5062290;28;20025;-82
2022/05/15 10:58:20;;;;;;;13.85;3.38;;;29.90;99.90;;;;;;5061684;28;20060;-82
2022/05/15 11:01:23;;;;;;;9.95;2.70;;;28.80;99.90;;;;;;5067127;28;20033;-82
2022/05/15 11:03:50;;;;;;;14.93;3.28;;;28.10;99.90;;;;;;5068634;28;20047;-82
2022/05/15 11:06:25;;;;;;;9.98;2.88;;;26.70;99.90;;;;;;5051706;28;20021;-82
2022/05/15 11:09:03;;;;;;;13.90;3.22;;;26.60;99.90;;;;;;5058484;28;20318;-83
2022/05/15 11:11:41;;;;;;;9.55;2.70;;;26.20;99.90;;;;;;5069787;28;20061;-83
2022/05/15 11:14:28;;;;;;;14.32;4.13;;;25.20;99.90;;;;;;5061044;28;20045;-82
2022/05/15 11:17:03;;;;;;;13.00;2.97;;;25.20;99.90;;;;;;5066999;28;20095;-82
2022/05/15 11:19:33;;;;;;;11.18;3.13;;;25.50;99.90;;;;;;5065792;28;20051;-81
2022/05/15 11:22:18;;;;;;;12.98;3.10;;;25.00;99.90;;;;;;5066538;28;20028;-81
2022/05/15 11:24:55;;;;;;;12.65;3.70;;;24.20;99.90;;;;;;5050597;28;20029;-82
2022/05/15 11:27:29;;;;;;;10.52;2.58;;;24.90;99.90;;;;;;5068561;28;20040;-81
2022/05/15 11:30:00;;;;;;;9.25;3.10;;;24.50;99.90;;;;;;5074277;28;20093;-81
2022/05/15 11:32:46;;;;;;;10.32;3.05;;;24.70;99.90;;;;;;5061525;28;20033;-81
2022/05/15 11:35:17;;;;;;;16.33;2.92;;;25.20;99.90;;;;;;5054830;28;20045;-82
2022/05/15 11:37:57;;;;;;;12.35;3.55;;;24.70;99.90;;;;;;5059860;28;20413;-82
2022/05/15 11:40:34;;;;;;;;;;;25.00;99.90;;;;;;5060019;28;20029;-82
2022/05/15 11:43:20;;;;;;;9.85;3.30;;;24.20;99.90;;;;;;5036545;28;19927;-87
2022/05/15 11:45:50;;;;;;;18.05;3.88;;;24.40;99.90;;;;;;5048914;28;20064;-88
2022/05/15 11:48:21;;;;;;;9.45;3.75;;;24.50;99.90;;;;;;5040448;28;20496;-87
2022/05/15 11:50:55;;;;;;;12.27;3.30;;;24.70;99.90;;;;;;5030914;28;20020;-87
2022/05/15 11:53:37;;;;;;;10.60;3.00;;;24.50;99.90;;;;;;5032660;28;20017;-89
2022/05/15 11:56:26;;;;;;;10.32;3.00;;;23.60;99.90;;;;;;5030610;28;20025;-89
2022/05/15 11:58:53;;;;;;;11.90;3.60;;;24.20;99.90;;;;;;5049634;28;20071;-88
2022/05/15 12:01:24;;;;;;;12.82;3.83;;;24.10;99.90;;;;;;5046483;28;20032;-89
2022/05/15 12:03:59;;;;;;;9.50;2.60;;;24.10;99.90;;;;;;5028340;28;20163;-89
2022/05/15 12:06:32;;;;;;;8.65;2.80;;;23.70;99.90;;;;;;5039776;28;21209;-88
2022/05/15 12:09:16;;;;;;;16.83;3.85;;;23.30;99.90;;;;;;5041779;28;20096;-89
2022/05/15 12:11:43;;;;;;;9.93;3.20;;;23.10;99.90;;;;;;5046740;28;20033;-89
2022/05/15 12:14:27;;;;;;;11.48;3.28;;;23.50;99.90;;;;;;5029628;28;20419;-88
2022/05/15 12:17:02;;;;;;;16.27;3.70;;;23.40;99.90;;;;;;5041055;28;20051;-87
2022/05/15 12:19:38;;;;;;;11.65;3.60;;;23.50;99.90;;;;;;5044083;28;20045;-86
2022/05/15 12:22:10;;;;;;;12.40;3.28;;;23.40;99.90;;;;;;5052968;28;20036;-88
2022/05/15 12:24:39;;;;;;;10.55;3.78;;;23.90;99.90;;;;;;5029167;28;20028;-88
2022/05/15 12:27:11;;;;;;;15.25;3.30;;;23.80;99.90;;;;;;5030026;28;20032;-88
2022/05/15 12:30:00;;;;;;;8.85;2.97;;;24.20;99.90;;;;;;5052308;28;20519;-88
2022/05/15 12:32:52;;;;;;;10.30;3.63;;;23.60;99.90;;;;;;5036428;28;20120;-88
2022/05/15 12:35:34;;;;;;;6.88;2.33;;;23.60;99.90;;;;;;5029682;28;20055;-88
2022/05/15 12:38:07;;;;;;;9.63;2.90;;;23.40;99.90;;;;;;5031973;28;20037;-88
2022/05/15 12:40:36;;;;;;;15.48;3.35;;;23.20;99.90;;;;;;5046965;28;20037;-88
2022/05/15 12:43:16;;;;;;;13.25;3.20;;;23.70;99.90;;;;;;5029748;28;20511;-88
2022/05/15 12:45:42;;;;;;;10.32;2.97;;;23.50;99.90;;;;;;5038391;28;20025;-88
2022/05/15 12:48:10;;;;;;;11.07;3.10;;;23.90;99.90;;;;;;5037338;28;20111;-89
2022/05/15 12:51:03;;;;;;;7.40;2.83;;;23.70;99.90;;;;;;5029005;28;20052;-85
2022/05/15 12:53:31;;;;;;;11.68;3.38;;;23.60;99.90;;;;;;5045172;28;20510;-85
2022/05/15 12:56:22;;;;;;;7.97;3.13;;;23.50;99.90;;;;;;5062645;28;20558;-85
2022/05/15 12:58:54;;;;;;;14.55;3.22;;;23.40;99.90;;;;;;5040802;28;20052;-85
2022/05/15 13:01:21;;;;;;;14.18;3.13;;;23.90;99.90;;;;;;5050103;28;20057;-85
2022/05/15 13:03:53;;;;;;;9.52;2.70;;;23.40;99.90;;;;;;5052306;28;20025;-85
2022/05/15 13:06:26;;;;;;;6.50;2.50;;;23.30;99.90;;;;;;5056781;28;20051;-85
2022/05/15 13:08:56;;;;;;;10.32;3.10;;;23.30;99.90;;;;;;5037397;28;20048;-86
2022/05/15 13:11:24;;;;;;;11.82;3.17;;;23.60;99.90;;;;;;5052566;28;20044;-86
2022/05/15 13:13:54;;;;;;;8.90;2.58;;;23.60;99.90;;;;;;5056113;28;20447;-86
2022/05/15 13:16:22;;;;;;;8.57;2.70;;;23.30;99.90;;;;;;5058660;28;20040;-85
2022/05/15 13:18:51;;;;;;;11.43;2.70;;;23.80;99.90;;;;;;5053032;28;20068;-85
2022/05/15 13:21:28;;;;;;;10.10;2.70;;;23.70;99.90;;;;;;5040279;28;20121;-85
2022/05/15 13:23:54;;;;;;;9.10;2.42;;;23.60;99.90;;;;;;5045044;28;20029;-85